createdAt,value
2023-05-21T00:01:25.968Z,94204.03
2023-05-21T00:03:53.540Z,94201.59
2023-05-21T00:06:21.324Z,94207.66
2023-05-21T00:08:48.238Z,94205.44
2023-05-21T00:11:15.122Z,94202.19
2023-05-21T00:13:45.047Z,94205.00
2023-05-21T00:16:12.033Z,94188.56
2023-05-21T00:18:40.655Z,94181.59
2023-05-21T00:21:07.830Z,94192.78
2023-05-21T00:23:36.754Z,94190.56
2023-05-21T00:26:03.704Z,94191.78
2023-05-21T00:28:30.550Z,94175.69
2023-05-21T00:30:57.388Z,94180.59
2023-05-21T00:33:26.744Z,94172.44
2023-05-21T00:35:53.706Z,94172.69
2023-05-21T00:38:20.579Z,94165.38
2023-05-21T00:40:47.574Z,94165.16
2023-05-21T00:43:14.566Z,94164.16
2023-05-21T00:45:47.741Z,94166.16
2023-05-21T00:48:15.010Z,94160.88
2023-05-21T00:50:42.160Z,94166.09
2023-05-21T00:53:09.907Z,94161.59
2023-05-21T00:55:40.341Z,94162.19
2023-05-21T00:58:08.570Z,94164.59
2023-05-21T01:00:37.671Z,94157.47
2023-05-21T01:03:05.400Z,94163.19
2023-05-21T01:05:32.800Z,94159.72
2023-05-21T01:08:00.002Z,94150.16
2023-05-21T01:10:27.493Z,94153.66
2023-05-21T01:12:57.669Z,94153.66
2023-05-21T01:15:25.136Z,94153.41
2023-05-21T01:17:52.323Z,94156.63
2023-05-21T01:20:20.790Z,94162.72
2023-05-21T01:22:57.301Z,94160.59
2023-05-21T01:25:25.051Z,94156.09
2023-05-21T01:27:52.525Z,94158.28
2023-05-21T01:30:21.469Z,94154.00
2023-05-21T01:33:23.571Z,94159.84
2023-05-21T01:36:05.033Z,94155.19
2023-05-21T01:38:42.178Z,94153.56
2023-05-21T01:41:12.266Z,94154.38
2023-05-21T01:43:42.863Z,94156.38
2023-05-21T01:46:13.472Z,94147.84
2023-05-21T01:48:41.977Z,94144.16
2023-05-21T01:51:09.093Z,94149.59
2023-05-21T01:53:38.935Z,94153.09
2023-05-21T01:56:06.596Z,94135.13
2023-05-21T01:58:33.466Z,94144.72
2023-05-21T02:01:00.315Z,94143.31
2023-05-21T02:03:31.334Z,94132.25
2023-05-21T02:05:58.390Z,94136.53
2023-05-21T02:08:25.724Z,94134.66
2023-05-21T02:10:52.616Z,94141.53
2023-05-21T02:13:26.021Z,94131.38
2023-05-21T02:15:55.176Z,94138.78
2023-05-21T02:18:22.387Z,94135.63
2023-05-21T02:20:49.377Z,94136.00
2023-05-21T02:23:16.372Z,94132.13
2023-05-21T02:25:44.140Z,94131.00
2023-05-21T02:28:11.040Z,94135.88
2023-05-21T02:30:37.904Z,94127.44
2023-05-21T02:33:04.897Z,94133.88
2023-05-21T02:35:32.479Z,94127.47
2023-05-21T02:37:59.627Z,94135.09
2023-05-21T02:40:26.729Z,94119.00
2023-05-21T02:42:53.617Z,94122.16
2023-05-21T02:45:20.602Z,94119.84
2023-05-21T02:47:47.594Z,94119.31
2023-05-21T02:50:15.148Z,94126.25
2023-05-21T02:52:42.174Z,94120.16
2023-05-21T02:55:09.864Z,94116.47
2023-05-21T02:57:36.783Z,94114.28
2023-05-21T03:00:06.288Z,94126.69
2023-05-21T03:02:33.294Z,94117.53
2023-05-21T03:05:00.859Z,94117.53
2023-05-21T03:07:27.769Z,94109.00
2023-05-21T03:09:54.796Z,94117.00
2023-05-21T03:12:21.667Z,94116.91
2023-05-21T03:14:51.544Z,94116.47
2023-05-21T03:17:19.167Z,94110.84
2023-05-21T03:19:46.078Z,94119.03
2023-05-21T03:22:12.924Z,94121.22
2023-05-21T03:24:40.164Z,94126.06
2023-05-21T03:27:07.746Z,94120.34
2023-05-21T03:29:35.254Z,94116.72
2023-05-21T03:32:02.833Z,94120.72
2023-05-21T03:34:30.373Z,94119.47
2023-05-21T03:36:57.252Z,94112.47
2023-05-21T03:39:24.148Z,94121.72
2023-05-21T03:41:51.358Z,94110.44
2023-05-21T03:44:18.271Z,94115.72
2023-05-21T03:46:45.863Z,94116.44
2023-05-21T03:49:13.951Z,94115.81
2023-05-21T03:51:40.821Z,94112.09
2023-05-21T03:54:07.677Z,94117.97
2023-05-21T03:56:34.609Z,94122.16
2023-05-21T03:59:01.714Z,94120.38
2023-05-21T04:01:28.757Z,94123.25
2023-05-21T04:03:56.082Z,94119.81
2023-05-21T04:06:23.086Z,94134.22
2023-05-21T04:08:50.478Z,94126.97
2023-05-21T04:11:17.366Z,94139.88
2023-05-21T04:13:44.246Z,94127.34
2023-05-21T04:16:14.837Z,94129.78
2023-05-21T04:18:44.148Z,94140.75
2023-05-21T04:21:12.637Z,94130.91
2023-05-21T04:23:39.786Z,94147.66
2023-05-21T04:26:07.816Z,94133.25
2023-05-21T04:28:35.617Z,94133.63
2023-05-21T04:31:02.865Z,94137.69
2023-05-21T04:33:30.550Z,94138.97
2023-05-21T04:35:58.106Z,94149.66
2023-05-21T04:38:26.177Z,94152.75
2023-05-21T04:40:53.195Z,94148.78
2023-05-21T04:43:25.748Z,94160.09
2023-05-21T04:45:56.542Z,94153.28
2023-05-21T04:48:25.102Z,94156.94
2023-05-21T04:50:53.744Z,94158.47
2023-05-21T04:53:20.972Z,94159.00
2023-05-21T04:55:48.202Z,94155.00
2023-05-21T04:58:18.073Z,94157.63
2023-05-21T05:00:47.255Z,94158.47
2023-05-21T05:03:14.776Z,94155.75
2023-05-21T05:05:42.194Z,94156.09
2023-05-21T05:08:09.118Z,94158.34
2023-05-21T05:10:36.475Z,94158.91
2023-05-21T05:13:03.745Z,94163.16
2023-05-21T05:15:30.613Z,94161.16
2023-05-21T05:17:57.512Z,94154.06
2023-05-21T05:20:24.386Z,94161.22
2023-05-21T05:22:51.433Z,94157.78
2023-05-21T05:25:18.497Z,94157.84
2023-05-21T05:27:45.379Z,94160.28
2023-05-21T05:30:12.573Z,94166.06
2023-05-21T05:32:39.511Z,94162.72
2023-05-21T05:35:07.644Z,94161.75
2023-05-21T05:37:34.642Z,94157.97
2023-05-21T05:40:01.522Z,94157.34
2023-05-21T05:42:28.532Z,94153.31
2023-05-21T05:44:56.077Z,94157.66
2023-05-21T05:47:22.970Z,94157.13
2023-05-21T05:49:49.883Z,94156.28
2023-05-21T05:52:16.842Z,94153.72
2023-05-21T05:54:43.712Z,94154.41
2023-05-21T05:57:10.571Z,94153.09
2023-05-21T05:59:37.430Z,94159.06
2023-05-21T06:02:04.482Z,94161.19
2023-05-21T06:04:31.419Z,94158.41
2023-05-21T06:06:58.744Z,94163.84
2023-05-21T06:09:27.019Z,94159.09
2023-05-21T06:11:53.865Z,94161.25
2023-05-21T06:14:26.427Z,94159.66
2023-05-21T06:16:53.281Z,94145.44
2023-05-21T06:19:20.293Z,94165.41
2023-05-21T06:21:47.510Z,94160.38
2023-05-21T06:24:14.441Z,94151.31
2023-05-21T06:26:42.146Z,94145.84
2023-05-21T06:29:09.134Z,94161.16
2023-05-21T06:31:36.098Z,94142.03
2023-05-21T06:34:03.029Z,94151.47
2023-05-21T06:36:30.390Z,94148.63
2023-05-21T06:38:57.465Z,94160.81
2023-05-21T06:41:24.623Z,94154.31
2023-05-21T06:43:51.748Z,94152.91
2023-05-21T06:46:18.758Z,94160.06
2023-05-21T06:48:46.646Z,94151.88
2023-05-21T06:51:13.706Z,94153.91
2023-05-21T06:53:40.759Z,94152.66
2023-05-21T06:56:07.810Z,94157.50
2023-05-21T06:58:34.732Z,94156.25
2023-05-21T07:01:01.986Z,94151.13
2023-05-21T07:03:29.047Z,94151.69
2023-05-21T07:05:57.159Z,94152.84
2023-05-21T07:08:24.412Z,94154.41
2023-05-21T07:10:51.323Z,94149.44
2023-05-21T07:13:18.180Z,94149.78
2023-05-21T07:15:45.047Z,94147.88
2023-05-21T07:19:33.433Z,94155.34
2023-05-21T07:22:00.305Z,94153.16
2023-05-21T07:24:28.178Z,94156.59
2023-05-21T07:26:55.130Z,94150.63
2023-05-21T07:29:22.025Z,94156.63
2023-05-21T07:31:48.891Z,94154.03
2023-05-21T07:34:16.307Z,94162.75
2023-05-21T07:36:43.158Z,94162.72
2023-05-21T07:39:10.123Z,94149.06
2023-05-21T07:41:37.002Z,94155.09
2023-05-21T07:44:04.015Z,94150.53
2023-05-21T07:46:30.915Z,94152.59
2023-05-21T07:48:57.914Z,94151.72
2023-05-21T07:51:24.824Z,94142.31
2023-05-21T07:53:53.222Z,94142.97
2023-05-21T07:56:21.992Z,94143.81
2023-05-21T07:58:49.208Z,94134.34
2023-05-21T08:01:16.160Z,94135.41
2023-05-21T08:03:43.148Z,94137.47
2023-05-21T08:06:10.164Z,94126.75
2023-05-21T08:08:36.995Z,94144.78
2023-05-21T08:11:03.893Z,94147.34
2023-05-21T08:13:30.829Z,94136.59
2023-05-21T08:15:57.848Z,94136.84
2023-05-21T08:18:25.584Z,94147.41
2023-05-21T08:20:52.518Z,94147.25
2023-05-21T08:23:19.392Z,94142.75
2023-05-21T08:25:46.504Z,94138.25
2023-05-21T08:28:13.384Z,94145.41
2023-05-21T08:30:40.363Z,94149.00
2023-05-21T08:33:07.277Z,94139.53
2023-05-21T08:35:34.311Z,94142.13
2023-05-21T08:38:01.445Z,94143.72
2023-05-21T08:40:28.405Z,94140.28
2023-05-21T08:42:55.300Z,94138.88
2023-05-21T08:45:23.862Z,94137.72
2023-05-21T08:47:59.905Z,94152.13
2023-05-21T08:50:28.482Z,94150.97
2023-05-21T08:52:55.738Z,94151.28
2023-05-21T08:55:23.763Z,94146.78
2023-05-21T08:57:51.200Z,94150.47
2023-05-21T09:00:18.378Z,94146.06
2023-05-21T09:02:46.632Z,94143.75
2023-05-21T09:05:15.750Z,94142.41
2023-05-21T09:08:03.336Z,94147.56
2023-05-21T09:10:37.195Z,94147.19
2023-05-21T09:13:04.686Z,94152.53
2023-05-21T09:15:32.021Z,94145.81
2023-05-21T09:17:58.975Z,94143.53
2023-05-21T09:20:27.728Z,94135.50
2023-05-21T09:22:55.760Z,94138.53
2023-05-21T09:25:29.629Z,94136.75
2023-05-21T09:27:57.134Z,94135.22
2023-05-21T09:30:26.821Z,94146.44
2023-05-21T09:33:00.123Z,94139.16
2023-05-21T09:35:27.323Z,94136.56
2023-05-21T09:37:54.549Z,94135.09
2023-05-21T09:40:24.111Z,94127.50
2023-05-21T09:42:53.702Z,94130.88
2023-05-21T09:45:21.140Z,94139.63
2023-05-21T09:47:49.977Z,94148.97
2023-05-21T09:50:28.004Z,94135.09
2023-05-21T09:52:56.022Z,94141.19
2023-05-21T09:55:24.321Z,94144.78
2023-05-21T09:57:52.547Z,94143.72
2023-05-21T10:00:28.765Z,94142.56
2023-05-21T10:02:58.117Z,94142.41
2023-05-21T10:05:30.391Z,94138.69
2023-05-21T10:08:02.491Z,94143.34
2023-05-21T10:10:32.197Z,94138.19
2023-05-21T10:13:03.984Z,94141.81
2023-05-21T10:15:47.377Z,94143.72
2023-05-21T10:18:16.978Z,94136.75
2023-05-21T10:20:44.643Z,94137.00
2023-05-21T10:23:13.197Z,94139.44
2023-05-21T10:25:40.601Z,94140.28
2023-05-21T10:28:07.609Z,94135.75
2023-05-21T10:30:36.870Z,94142.22
2023-05-21T10:33:04.765Z,94138.72
2023-05-21T10:35:34.091Z,94145.97
2023-05-21T10:38:04.909Z,94140.03
2023-05-21T10:40:32.043Z,94142.09
2023-05-21T10:43:14.608Z,94149.53
2023-05-21T10:46:33.599Z,94146.91
2023-05-21T10:49:32.793Z,94141.06
2023-05-21T10:52:43.484Z,94143.78
2023-05-21T10:55:43.789Z,94145.09
2023-05-21T10:58:31.700Z,94141.06
2023-05-21T11:01:00.189Z,94135.19
2023-05-21T11:03:28.983Z,94143.81
2023-05-21T11:05:57.167Z,94142.72
2023-05-21T11:08:29.169Z,94145.44
2023-05-21T11:11:00.434Z,94150.03
2023-05-21T11:13:28.786Z,94150.81
2023-05-21T11:15:58.653Z,94146.75
2023-05-21T11:18:40.482Z,94147.56
2023-05-21T11:21:10.236Z,94147.31
2023-05-21T11:23:51.814Z,94150.25
2023-05-21T11:26:24.588Z,94151.59
2023-05-21T11:29:11.956Z,94154.88
2023-05-21T11:31:39.117Z,94152.41
2023-05-21T11:34:15.264Z,94156.72
2023-05-21T11:36:47.144Z,94156.47
2023-05-21T11:39:17.881Z,94156.75
2023-05-21T11:42:14.046Z,94157.00
2023-05-21T11:44:46.202Z,94158.63
2023-05-21T11:47:17.946Z,94167.50
2023-05-21T11:49:46.457Z,94166.44
2023-05-21T11:52:14.760Z,94158.91
2023-05-21T11:54:51.931Z,94168.28
2023-05-21T11:57:19.528Z,94168.28
2023-05-21T11:59:47.179Z,94160.97
2023-05-21T12:02:19.113Z,94171.78
2023-05-21T12:04:48.701Z,94166.69
2023-05-21T12:07:19.192Z,94171.22
2023-05-21T12:09:48.869Z,94170.13
2023-05-21T12:12:18.582Z,94176.09
2023-05-21T12:14:48.102Z,94163.19
2023-05-21T12:17:23.309Z,94164.84
2023-05-21T12:19:53.509Z,94168.06
2023-05-21T12:22:20.959Z,94158.63
2023-05-21T12:24:48.955Z,94166.97
2023-05-21T12:27:17.160Z,94174.25
2023-05-21T12:29:46.802Z,94173.69
2023-05-21T12:32:15.712Z,94168.06
2023-05-21T12:34:54.891Z,94169.66
2023-05-21T12:37:26.829Z,94177.22
2023-05-21T12:39:56.446Z,94189.59
2023-05-21T12:42:30.081Z,94173.44
2023-05-21T12:44:58.311Z,94182.59
2023-05-21T12:47:26.977Z,94186.34
2023-05-21T12:49:58.286Z,94179.38
2023-05-21T12:52:25.910Z,94185.28
2023-05-21T12:54:56.736Z,94194.16
2023-05-21T12:57:38.899Z,94182.03
2023-05-21T13:00:07.597Z,94189.31
2023-05-21T13:02:39.760Z,94185.53
2023-05-21T13:05:09.805Z,94188.59
2023-05-21T13:07:39.470Z,94179.72
2023-05-21T13:10:07.928Z,94189.97
2023-05-21T13:12:35.610Z,94175.50
2023-05-21T13:15:05.209Z,94181.72
2023-05-21T13:17:32.164Z,94175.56
2023-05-21T13:20:20.665Z,94182.00
2023-05-21T13:22:50.646Z,94186.75
2023-05-21T13:25:22.198Z,94187.28
2023-05-21T13:27:50.700Z,94178.41
2023-05-21T13:30:18.867Z,94178.69
2023-05-21T13:32:46.369Z,94184.91
2023-05-21T13:35:13.706Z,94182.53
2023-05-21T13:37:41.328Z,94178.25
2023-05-21T13:40:17.118Z,94178.03
2023-05-21T13:42:46.000Z,94169.09
2023-05-21T13:45:15.684Z,94174.41
2023-05-21T13:47:45.789Z,94169.91
2023-05-21T13:50:13.436Z,94164.44
2023-05-21T13:52:40.671Z,94160.00
2023-05-21T13:55:08.455Z,94164.44
2023-05-21T13:57:35.486Z,94168.34
2023-05-21T14:00:04.060Z,94159.66
2023-05-21T14:02:31.001Z,94156.84
2023-05-21T14:04:57.979Z,94165.53
2023-05-21T14:07:24.920Z,94155.97
2023-05-21T14:09:52.547Z,94167.88
2023-05-21T14:12:19.571Z,94164.06
2023-05-21T14:14:46.450Z,94160.69
2023-05-21T14:17:13.349Z,94157.91
2023-05-21T14:19:40.241Z,94155.66
2023-05-21T14:22:07.084Z,94158.38
2023-05-21T14:24:33.952Z,94164.00
2023-05-21T14:27:00.796Z,94163.16
2023-05-21T14:29:27.754Z,94162.03
2023-05-21T14:31:54.663Z,94158.72
2023-05-21T14:34:21.599Z,94163.31
2023-05-21T14:36:48.478Z,94173.28
2023-05-21T14:39:15.666Z,94167.97
2023-05-21T14:41:42.973Z,94174.63
2023-05-21T14:44:09.877Z,94176.78
2023-05-21T14:46:37.016Z,94161.38
2023-05-21T14:49:04.138Z,94170.38
2023-05-21T14:51:31.890Z,94168.19
2023-05-21T14:53:58.967Z,94170.94
2023-05-21T14:56:27.903Z,94166.94
2023-05-21T14:58:55.177Z,94170.38
2023-05-21T15:01:22.210Z,94164.47
2023-05-21T15:03:49.523Z,94167.19
2023-05-21T15:06:16.777Z,94171.09
2023-05-21T15:08:43.782Z,94166.56
2023-05-21T15:11:10.675Z,94170.00
2023-05-21T15:13:38.894Z,94164.09
2023-05-21T15:16:06.323Z,94165.75
2023-05-21T15:18:33.414Z,94164.13
2023-05-21T15:21:00.405Z,94160.41
2023-05-21T15:23:27.253Z,94170.69
2023-05-21T15:25:54.228Z,94163.22
2023-05-21T15:28:21.122Z,94165.06
2023-05-21T15:30:47.952Z,94169.63
2023-05-21T15:33:14.875Z,94172.31
2023-05-21T15:35:42.182Z,94168.31
2023-05-21T15:38:09.513Z,94169.91
2023-05-21T15:40:36.422Z,94166.69
2023-05-21T15:43:03.338Z,94163.72
2023-05-21T15:45:30.190Z,94169.13
2023-05-21T15:47:57.402Z,94163.22
2023-05-21T15:50:24.304Z,94162.66
2023-05-21T15:52:53.361Z,94166.44
2023-05-21T15:55:22.024Z,94162.13
2023-05-21T15:57:48.922Z,94156.75
2023-05-21T16:00:15.966Z,94157.03
2023-05-21T16:02:42.938Z,94159.69
2023-05-21T16:05:10.353Z,94163.19
2023-05-21T16:07:38.398Z,94156.19
2023-05-21T16:10:10.838Z,94158.88
2023-05-21T16:12:38.606Z,94166.69
2023-05-21T16:15:06.551Z,94160.47
2023-05-21T16:17:33.515Z,94158.75
2023-05-21T16:20:00.392Z,94160.81
2023-05-21T16:22:27.276Z,94160.78
2023-05-21T16:24:54.814Z,94152.16
2023-05-21T16:27:21.804Z,94150.50
2023-05-21T16:29:48.683Z,94163.41
2023-05-21T16:32:16.232Z,94156.75
2023-05-21T16:34:43.254Z,94150.53
2023-05-21T16:37:10.195Z,94144.00
2023-05-21T16:39:37.512Z,94147.06
2023-05-21T16:42:04.823Z,94146.91
2023-05-21T16:44:32.459Z,94143.63
2023-05-21T16:47:00.382Z,94137.91
2023-05-21T16:49:28.111Z,94139.84
2023-05-21T16:51:55.048Z,94138.31
2023-05-21T16:54:22.279Z,94140.09
2023-05-21T16:56:49.328Z,94144.50
2023-05-21T16:59:16.516Z,94135.59
2023-05-21T17:01:43.473Z,94145.66
2023-05-21T17:04:11.130Z,94140.94
2023-05-21T17:06:38.005Z,94138.25
2023-05-21T17:09:04.885Z,94140.16
2023-05-21T17:11:31.813Z,94135.56
2023-05-21T17:13:58.917Z,94131.34
2023-05-21T17:16:25.768Z,94138.88
2023-05-21T17:18:52.762Z,94137.56
2023-05-21T17:21:19.992Z,94146.47
2023-05-21T17:23:46.873Z,94139.47
2023-05-21T17:26:14.115Z,94143.81
2023-05-21T17:28:41.048Z,94145.97
2023-05-21T17:31:09.736Z,94148.94
2023-05-21T17:33:37.764Z,94145.97
2023-05-21T17:36:04.989Z,94161.31
2023-05-21T17:38:31.943Z,94158.38
2023-05-21T17:40:59.509Z,94153.81
2023-05-21T17:43:27.839Z,94148.69
2023-05-21T17:45:54.766Z,94168.63
2023-05-21T17:48:21.826Z,94159.19
2023-05-21T17:50:48.862Z,94162.13
2023-05-21T17:53:16.338Z,94154.34
2023-05-21T17:55:43.338Z,94159.13
2023-05-21T17:58:10.274Z,94169.56
2023-05-21T18:00:37.210Z,94156.06
2023-05-21T18:03:04.545Z,94159.22
2023-05-21T18:05:31.512Z,94159.13
2023-05-21T18:08:01.402Z,94162.25
2023-05-21T18:10:28.881Z,94155.94
2023-05-21T18:12:55.952Z,94162.53
2023-05-21T18:15:23.007Z,94157.31
2023-05-21T18:17:49.911Z,94152.06
2023-05-21T18:20:17.020Z,94156.00
2023-05-21T18:22:45.161Z,94156.72
2023-05-21T18:25:12.057Z,94162.59
2023-05-21T18:27:38.956Z,94157.97
2023-05-21T18:30:07.189Z,94168.25
2023-05-21T18:32:38.880Z,94170.19
2023-05-21T18:35:11.895Z,94169.41
2023-05-21T18:37:41.783Z,94167.03
2023-05-21T18:40:09.427Z,94169.03
2023-05-21T18:42:36.476Z,94174.66
2023-05-21T18:45:10.567Z,94168.50
2023-05-21T18:47:39.363Z,94177.38
2023-05-21T18:50:13.888Z,94180.22
2023-05-21T18:52:40.810Z,94174.09
2023-05-21T18:55:08.408Z,94174.91
2023-05-21T18:57:35.309Z,94176.06
2023-05-21T19:00:02.221Z,94174.50
2023-05-21T19:02:29.933Z,94194.19
2023-05-21T19:04:56.869Z,94189.31
2023-05-21T19:07:23.825Z,94189.50
2023-05-21T19:09:50.741Z,94186.28
2023-05-21T19:12:17.601Z,94190.81
2023-05-21T19:14:45.184Z,94198.09
2023-05-21T19:17:13.807Z,94188.28
2023-05-21T19:19:40.785Z,94193.03
2023-05-21T19:22:07.895Z,94195.34
2023-05-21T19:24:34.810Z,94205.88
2023-05-21T19:27:01.647Z,94198.75
2023-05-21T19:29:28.903Z,94210.09
2023-05-21T19:31:57.478Z,94211.28
2023-05-21T19:34:24.481Z,94215.56
2023-05-21T19:36:53.835Z,94219.06
2023-05-21T19:39:21.794Z,94222.13
2023-05-21T19:41:48.711Z,94224.09
2023-05-21T19:44:15.625Z,94226.91
2023-05-21T19:46:42.523Z,94231.44
2023-05-21T19:49:11.235Z,94231.69
2023-05-21T19:51:38.182Z,94239.53
2023-05-21T19:54:05.017Z,94233.75
2023-05-21T19:56:31.884Z,94247.44
2023-05-21T19:58:58.747Z,94247.94
2023-05-21T20:01:25.844Z,94250.34
2023-05-21T20:03:52.869Z,94245.63
2023-05-21T20:06:20.893Z,94244.31
2023-05-21T20:08:48.163Z,94249.63
2023-05-21T20:11:15.175Z,94250.69
2023-05-21T20:13:42.487Z,94241.63
2023-05-21T20:16:10.736Z,94255.16
2023-05-21T20:18:37.696Z,94247.38
2023-05-21T20:21:06.568Z,94242.19
2023-05-21T20:23:33.484Z,94244.97
2023-05-21T20:26:00.339Z,94235.88
2023-05-21T20:28:27.209Z,94252.28
2023-05-21T20:30:59.852Z,94241.28
2023-05-21T20:33:28.147Z,94247.44
2023-05-21T20:35:54.991Z,94242.22
2023-05-21T20:38:22.238Z,94243.66
2023-05-21T20:40:49.129Z,94235.72
2023-05-21T20:43:16.097Z,94244.25
2023-05-21T20:45:43.806Z,94245.84
2023-05-21T20:48:12.174Z,94247.25
2023-05-21T20:50:41.155Z,94243.66
2023-05-21T20:53:08.749Z,94245.91
2023-05-21T20:55:35.641Z,94239.94
2023-05-21T20:58:05.929Z,94245.72
2023-05-21T21:00:33.534Z,94242.72
2023-05-21T21:03:03.909Z,94257.53
2023-05-21T21:05:31.173Z,94249.16
2023-05-21T21:08:02.589Z,94250.63
2023-05-21T21:10:29.490Z,94255.94
2023-05-21T21:12:56.357Z,94249.22
2023-05-21T21:15:23.207Z,94247.44
2023-05-21T21:17:50.150Z,94257.41
2023-05-21T21:20:17.934Z,94252.06
2023-05-21T21:22:45.613Z,94255.75
2023-05-21T21:25:14.320Z,94257.53
2023-05-21T21:27:42.610Z,94258.25
2023-05-21T21:30:10.250Z,94251.13
2023-05-21T21:32:37.330Z,94247.63
2023-05-21T21:35:04.626Z,94250.44
2023-05-21T21:37:31.486Z,94252.50
2023-05-21T21:39:58.342Z,94246.38
2023-05-21T21:42:25.242Z,94245.22
2023-05-21T21:44:52.094Z,94251.75
2023-05-21T21:47:18.955Z,94252.19
2023-05-21T21:49:45.837Z,94245.06
2023-05-21T21:52:14.877Z,94247.34
2023-05-21T21:54:41.737Z,94239.53
2023-05-21T21:57:08.643Z,94242.59
2023-05-21T21:59:38.597Z,94243.03
2023-05-21T22:02:06.342Z,94244.09
2023-05-21T22:04:33.299Z,94244.53
2023-05-21T22:07:00.254Z,94243.75
2023-05-21T22:09:27.243Z,94243.94
2023-05-21T22:11:54.136Z,94249.03
2023-05-21T22:14:20.990Z,94236.38
2023-05-21T22:16:48.034Z,94238.44
2023-05-21T22:19:16.243Z,94244.16
2023-05-21T22:21:43.453Z,94244.16
2023-05-21T22:24:24.169Z,94242.16
2023-05-21T22:26:57.109Z,94239.50
2023-05-21T22:29:23.983Z,94247.47
2023-05-21T22:31:50.999Z,94237.09
2023-05-21T22:34:17.877Z,94241.16
2023-05-21T22:36:44.919Z,94248.72
2023-05-21T22:39:11.775Z,94252.16
2023-05-21T22:41:38.653Z,94248.91
2023-05-21T22:44:05.549Z,94256.22
2023-05-21T22:46:32.474Z,94244.19
2023-05-21T22:49:00.345Z,94253.97
2023-05-21T22:51:29.043Z,94247.47
2023-05-21T22:53:56.151Z,94249.09
2023-05-21T22:56:23.009Z,94242.13
2023-05-21T22:58:49.930Z,94246.63
2023-05-21T23:01:16.885Z,94243.00
2023-05-21T23:03:43.736Z,94237.91
2023-05-21T23:06:10.658Z,94241.38
2023-05-21T23:08:37.677Z,94241.00
2023-05-21T23:11:04.578Z,94238.13
2023-05-21T23:13:31.436Z,94236.09
2023-05-21T23:15:59.084Z,94237.13
2023-05-21T23:18:26.415Z,94249.94
2023-05-21T23:20:53.320Z,94240.19
2023-05-21T23:23:20.195Z,94243.47
2023-05-21T23:25:47.078Z,94240.22
2023-05-21T23:28:13.917Z,94246.53
2023-05-21T23:30:40.943Z,94242.66
2023-05-21T23:33:07.969Z,94249.63
2023-05-21T23:35:34.886Z,94250.00
2023-05-21T23:38:01.808Z,94243.91
2023-05-21T23:40:28.662Z,94246.97
2023-05-21T23:42:55.514Z,94239.66
2023-05-21T23:45:22.597Z,94245.75
2023-05-21T23:47:49.509Z,94243.69
2023-05-21T23:50:16.736Z,94251.28
2023-05-21T23:52:43.730Z,94246.59
2023-05-21T23:55:12.820Z,94247.59
2023-05-21T23:57:39.696Z,94237.19
